createdAt,value
2022-09-23T00:01:22.625Z,7.79
2022-09-23T00:03:50.252Z,7.71
2022-09-23T00:06:24.684Z,7.69
2022-09-23T00:08:52.547Z,7.52
2022-09-23T00:11:26.827Z,7.48
2022-09-23T00:13:58.578Z,7.53
2022-09-23T00:16:30.941Z,7.58
2022-09-23T00:18:58.685Z,7.48
2022-09-23T00:21:26.631Z,7.45
2022-09-23T00:23:54.115Z,7.48
2022-09-23T00:26:23.382Z,7.51
2022-09-23T00:28:51.797Z,7.48
2022-09-23T00:31:23.449Z,7.48
2022-09-23T00:34:01.743Z,7.52
2022-09-23T00:36:32.152Z,7.53
2022-09-23T00:39:00.093Z,7.54
2022-09-23T00:41:28.067Z,7.45
2022-09-23T00:43:59.268Z,7.36
2022-09-23T00:46:35.532Z,7.28
2022-09-23T00:49:14.444Z,7.28
2022-09-23T00:51:58.510Z,7.31
2022-09-23T00:54:27.696Z,7.29
2022-09-23T00:56:57.608Z,7.27
2022-09-23T00:59:26.188Z,7.20
2022-09-23T01:01:57.600Z,7.14
2022-09-23T01:04:28.712Z,7.06
2022-09-23T01:06:56.204Z,7.02
2022-09-23T01:09:25.320Z,7.01
2022-09-23T01:12:12.742Z,7.01
2022-09-23T01:14:48.427Z,6.99
2022-09-23T01:17:37.397Z,6.96
2022-09-23T01:21:17.636Z,7.03
2022-09-23T01:24:08.927Z,7.06
2022-09-23T01:27:01.619Z,6.94
2022-09-23T01:29:46.932Z,6.94
2022-09-23T01:32:17.445Z,7.04
2022-09-23T01:35:18.275Z,7.02
2022-09-23T01:38:16.841Z,6.92
2022-09-23T01:41:09.904Z,6.92
2022-09-23T01:43:48.858Z,6.91
2022-09-23T01:46:54.342Z,6.78
2022-09-23T01:49:53.427Z,6.80
2022-09-23T01:52:32.859Z,6.80
2022-09-23T01:55:27.976Z,6.77
2022-09-23T01:58:12.151Z,6.68
2022-09-23T02:00:53.260Z,6.66
2022-09-23T02:03:55.286Z,6.62
2022-09-23T02:06:35.102Z,6.57
2022-09-23T02:09:14.270Z,6.59
2022-09-23T02:11:46.405Z,6.53
2022-09-23T02:14:30.698Z,6.45
2022-09-23T02:17:13.055Z,6.48
2022-09-23T02:19:53.396Z,6.41
2022-09-23T02:22:52.007Z,6.36
2022-09-23T02:25:25.976Z,6.40
2022-09-23T02:28:19.031Z,6.43
2022-09-23T02:31:04.964Z,6.47
2022-09-23T02:33:44.206Z,6.46
2022-09-23T02:36:56.123Z,6.42
2022-09-23T02:39:37.211Z,6.42
2022-09-23T02:42:15.210Z,6.35
2022-09-23T02:44:42.741Z,6.34
2022-09-23T02:47:10.607Z,6.29
2022-09-23T02:49:38.182Z,6.26
2022-09-23T02:52:07.619Z,6.26
2022-09-23T02:54:36.791Z,6.23
2022-09-23T02:57:08.269Z,6.27
2022-09-23T02:59:37.127Z,6.30
2022-09-23T03:02:26.884Z,6.34
2022-09-23T03:05:09.367Z,6.42
2022-09-23T03:08:02.881Z,6.45
2022-09-23T03:10:43.859Z,6.47
2022-09-23T03:13:35.200Z,6.46
2022-09-23T03:16:44.535Z,6.43
2022-09-23T03:19:42.272Z,6.40
2022-09-23T03:22:21.498Z,6.39
2022-09-23T03:24:54.010Z,6.45
2022-09-23T03:27:29.980Z,6.49
2022-09-23T03:29:58.757Z,6.53
2022-09-23T03:32:29.193Z,6.54
2022-09-23T03:35:01.130Z,6.53
2022-09-23T03:37:44.779Z,6.50
2022-09-23T03:40:17.688Z,6.51
2022-09-23T03:42:48.864Z,6.51
2022-09-23T03:45:22.669Z,6.49
2022-09-23T03:47:50.182Z,6.41
2022-09-23T03:50:17.951Z,6.36
2022-09-23T03:52:46.391Z,6.27
2022-09-23T03:55:13.986Z,6.23
2022-09-23T03:57:41.547Z,6.27
2022-09-23T04:00:10.338Z,6.29
2022-09-23T04:02:41.360Z,6.38
2022-09-23T04:05:13.343Z,6.43
2022-09-23T04:07:41.342Z,6.43
2022-09-23T04:10:10.007Z,6.42
2022-09-23T04:12:38.294Z,6.36
2022-09-23T04:15:06.739Z,6.43
2022-09-23T04:17:34.275Z,6.33
2022-09-23T04:20:02.293Z,6.28
2022-09-23T04:22:29.727Z,6.34
2022-09-23T04:24:57.364Z,6.33
2022-09-23T04:27:24.821Z,6.36
2022-09-23T04:29:52.309Z,6.36
2022-09-23T04:32:19.760Z,6.36
2022-09-23T04:34:47.185Z,6.26
2022-09-23T04:37:14.696Z,6.25
2022-09-23T04:39:43.279Z,6.15
2022-09-23T04:42:10.862Z,6.15
2022-09-23T04:44:38.929Z,6.24
2022-09-23T04:47:06.713Z,6.32
2022-09-23T04:49:34.318Z,6.30
2022-09-23T04:52:02.796Z,6.35
2022-09-23T04:54:30.142Z,6.38
2022-09-23T04:56:57.680Z,6.60
2022-09-23T04:59:25.181Z,6.68
2022-09-23T05:01:54.398Z,6.76
2022-09-23T05:04:22.029Z,6.91
2022-09-23T05:06:49.488Z,7.01
2022-09-23T05:09:17.730Z,7.07
2022-09-23T05:11:45.997Z,7.29
2022-09-23T05:14:13.797Z,7.28
2022-09-23T05:16:41.589Z,7.47
2022-09-23T05:19:09.182Z,7.66
2022-09-23T05:21:37.796Z,7.86
2022-09-23T05:24:05.617Z,7.81
2022-09-23T05:26:33.457Z,8.01
2022-09-23T05:29:01.093Z,8.03
2022-09-23T05:31:30.711Z,8.13
2022-09-23T05:34:01.908Z,8.44
2022-09-23T05:36:37.919Z,8.73
2022-09-23T05:39:08.657Z,9.00
2022-09-23T05:41:37.038Z,9.24
2022-09-23T05:44:04.997Z,9.46
2022-09-23T05:46:33.326Z,9.76
2022-09-23T05:49:03.453Z,9.81
2022-09-23T05:51:34.723Z,10.11
2022-09-23T05:54:04.360Z,10.09
2022-09-23T05:56:33.814Z,10.44
2022-09-23T05:59:03.248Z,11.01
2022-09-23T06:01:35.640Z,11.44
2022-09-23T06:04:06.004Z,11.47
2022-09-23T06:06:42.696Z,11.63
2022-09-23T06:09:13.889Z,11.64
2022-09-23T06:11:42.540Z,11.65
2022-09-23T06:14:14.804Z,12.38
2022-09-23T06:16:43.146Z,12.26
2022-09-23T06:19:11.118Z,13.19
2022-09-23T06:21:40.927Z,13.37
2022-09-23T06:24:11.227Z,12.93
2022-09-23T06:26:41.136Z,12.08
2022-09-23T06:29:14.476Z,13.17
2022-09-23T06:31:43.354Z,12.83
2022-09-23T06:34:14.348Z,13.61
2022-09-23T06:36:45.399Z,14.03
2022-09-23T06:39:16.552Z,13.96
2022-09-23T06:41:45.264Z,13.16
2022-09-23T06:44:15.193Z,13.81
2022-09-23T06:46:43.245Z,13.59
2022-09-23T06:49:13.320Z,14.51
2022-09-23T06:51:41.514Z,14.68
2022-09-23T06:54:09.444Z,15.86
2022-09-23T06:56:39.447Z,15.89
2022-09-23T06:59:13.012Z,15.94
2022-09-23T07:01:40.734Z,16.09
2022-09-23T07:04:10.610Z,16.81
2022-09-23T07:06:38.158Z,16.72
2022-09-23T07:09:07.894Z,16.35
2022-09-23T07:11:35.345Z,17.27
2022-09-23T07:14:02.914Z,18.02
2022-09-23T07:16:31.638Z,17.95
2022-09-23T07:18:59.617Z,17.29
2022-09-23T07:21:27.847Z,16.23
2022-09-23T07:23:58.053Z,16.85
2022-09-23T07:26:26.296Z,17.40
2022-09-23T07:28:56.648Z,16.91
2022-09-23T07:31:37.831Z,17.39
2022-09-23T07:34:11.335Z,17.21
2022-09-23T07:36:40.685Z,17.78
2022-09-23T07:39:12.606Z,17.07
2022-09-23T07:41:41.745Z,16.81
2022-09-23T07:44:11.862Z,17.29
2022-09-23T07:46:40.065Z,17.03
2022-09-23T07:49:07.998Z,17.53
2022-09-23T07:51:38.834Z,18.47
2022-09-23T07:54:09.935Z,19.53
2022-09-23T07:56:38.779Z,18.54
2022-09-23T07:59:09.297Z,18.31
2022-09-23T08:01:41.501Z,17.68
2022-09-23T08:04:17.965Z,18.27
2022-09-23T08:06:59.224Z,17.77
2022-09-23T08:09:35.612Z,17.51
2022-09-23T08:12:03.581Z,17.26
2022-09-23T08:14:31.072Z,18.42
2022-09-23T08:16:58.532Z,19.92
2022-09-23T08:19:26.087Z,20.59
2022-09-23T08:21:54.459Z,20.26
2022-09-23T08:24:24.239Z,18.08
2022-09-23T08:26:53.363Z,17.22
2022-09-23T08:29:24.907Z,16.97
2022-09-23T08:31:53.792Z,18.29
2022-09-23T08:34:23.748Z,18.72
2022-09-23T08:36:52.409Z,19.65
2022-09-23T08:39:21.247Z,19.83
2022-09-23T08:42:07.140Z,18.66
2022-09-23T08:44:45.311Z,17.87
2022-09-23T08:47:12.665Z,16.87
2022-09-23T08:50:22.016Z,18.15
2022-09-23T08:52:55.958Z,17.06
2022-09-23T08:55:42.030Z,16.99
2022-09-23T08:58:53.545Z,16.17
2022-09-23T09:01:45.915Z,15.70
2022-09-23T09:04:19.225Z,15.83
2022-09-23T09:07:24.585Z,17.91
2022-09-23T09:10:24.933Z,20.60
2022-09-23T09:13:28.706Z,19.87
2022-09-23T09:16:42.138Z,18.53
2022-09-23T09:19:21.747Z,18.18
2022-09-23T09:21:55.513Z,17.73
2022-09-23T09:24:34.826Z,17.90
2022-09-23T09:27:12.527Z,17.39
2022-09-23T09:29:49.713Z,17.02
2022-09-23T09:32:46.269Z,17.41
2022-09-23T09:35:33.440Z,19.75
2022-09-23T09:38:01.825Z,20.29
2022-09-23T09:40:29.852Z,20.53
2022-09-23T09:42:57.748Z,21.21
2022-09-23T09:45:57.761Z,20.47
2022-09-23T09:48:40.071Z,19.54
2022-09-23T09:51:21.514Z,19.04
2022-09-23T09:53:53.053Z,19.87
2022-09-23T09:56:42.072Z,21.38
2022-09-23T09:59:16.531Z,22.06
2022-09-23T10:01:46.194Z,22.64
2022-09-23T10:04:24.908Z,22.61
2022-09-23T10:07:13.093Z,22.60
2022-09-23T10:09:50.281Z,23.22
2022-09-23T10:12:24.512Z,22.45
2022-09-23T10:14:57.238Z,21.30
2022-09-23T10:17:34.344Z,19.20
2022-09-23T10:20:09.059Z,18.45
2022-09-23T10:22:42.379Z,17.62
2022-09-23T10:25:20.734Z,17.99
2022-09-23T10:27:48.272Z,17.38
2022-09-23T10:30:23.092Z,17.52
2022-09-23T10:32:54.950Z,17.72
2022-09-23T10:35:25.481Z,20.32
2022-09-23T10:37:56.155Z,21.12
2022-09-23T10:40:47.908Z,20.89
2022-09-23T10:44:02.873Z,22.01
2022-09-23T10:46:48.527Z,22.20
2022-09-23T10:49:57.134Z,21.65
2022-09-23T10:52:36.428Z,21.79
2022-09-23T10:55:56.725Z,18.97
2022-09-23T10:59:02.363Z,18.71
2022-09-23T11:02:19.160Z,18.43
2022-09-23T11:05:06.482Z,18.24
2022-09-23T11:07:44.880Z,17.97
2022-09-23T11:10:44.975Z,17.89
2022-09-23T11:13:54.613Z,19.04
2022-09-23T11:16:39.113Z,18.00
2022-09-23T11:19:44.724Z,17.53
2022-09-23T11:22:37.963Z,19.61
2022-09-23T11:25:30.297Z,20.36
2022-09-23T11:29:02.427Z,20.84
2022-09-23T11:31:59.730Z,23.34
2022-09-23T11:34:27.193Z,23.22
2022-09-23T11:37:06.867Z,24.17
2022-09-23T11:39:51.339Z,23.58
2022-09-23T11:42:31.730Z,24.01
2022-09-23T11:45:08.593Z,23.91
2022-09-23T11:47:48.740Z,23.51
2022-09-23T11:50:25.829Z,22.34
2022-09-23T11:53:40.751Z,20.86
2022-09-23T11:56:40.071Z,19.61
2022-09-23T11:59:40.531Z,19.04
2022-09-23T12:02:30.235Z,18.45
2022-09-23T12:05:13.987Z,17.85
2022-09-23T12:08:17.879Z,18.18
2022-09-23T12:11:25.683Z,19.27
2022-09-23T12:14:10.958Z,20.70
2022-09-23T12:17:22.151Z,21.72
2022-09-23T12:20:33.993Z,20.57
2022-09-23T12:23:47.444Z,20.18
2022-09-23T12:26:20.262Z,19.83
2022-09-23T12:28:52.988Z,19.50
2022-09-23T12:31:30.669Z,19.14
2022-09-23T12:34:01.051Z,18.52
2022-09-23T12:36:36.316Z,18.58
2022-09-23T12:39:13.962Z,18.92
2022-09-23T12:41:46.308Z,19.50
2022-09-23T12:44:31.847Z,19.61
2022-09-23T12:47:25.443Z,19.40
2022-09-23T12:49:54.013Z,19.10
2022-09-23T12:52:33.480Z,18.90
2022-09-23T12:55:23.331Z,18.90
2022-09-23T12:57:50.865Z,18.75
2022-09-23T13:00:26.859Z,18.42
2022-09-23T13:03:18.602Z,18.72
2022-09-23T13:06:35.734Z,18.61
2022-09-23T13:09:03.530Z,18.77
2022-09-23T13:11:33.203Z,18.87
2022-09-23T13:14:05.338Z,18.79
2022-09-23T13:16:45.935Z,18.60
2022-09-23T13:19:28.448Z,18.53
2022-09-23T13:22:11.063Z,18.28
2022-09-23T13:24:52.201Z,17.97
2022-09-23T13:27:33.867Z,18.08
2022-09-23T13:30:25.116Z,18.24
2022-09-23T13:33:24.118Z,18.04
2022-09-23T13:35:57.988Z,18.03
2022-09-23T13:38:31.742Z,17.86
2022-09-23T13:41:15.435Z,17.79
2022-09-23T13:43:50.948Z,17.91
2022-09-23T13:46:40.006Z,17.92
2022-09-23T13:49:24.406Z,17.86
2022-09-23T13:51:54.156Z,17.62
2022-09-23T13:54:46.515Z,17.71
2022-09-23T13:57:33.848Z,17.80
2022-09-23T14:00:19.419Z,17.60
2022-09-23T14:02:47.342Z,17.95
2022-09-23T14:05:27.612Z,17.82
2022-09-23T14:07:57.016Z,17.77
2022-09-23T14:10:27.660Z,17.63
2022-09-23T14:12:56.568Z,17.86
2022-09-23T14:15:24.386Z,17.78
2022-09-23T14:18:06.279Z,17.43
2022-09-23T14:20:50.242Z,17.50
2022-09-23T14:23:17.787Z,17.66
2022-09-23T14:25:47.033Z,17.79
2022-09-23T14:28:23.924Z,17.85
2022-09-23T14:30:58.407Z,17.61
2022-09-23T14:33:32.238Z,17.68
2022-09-23T14:36:31.050Z,17.66
2022-09-23T14:39:09.074Z,17.57
2022-09-23T14:41:42.637Z,17.67
2022-09-23T14:44:25.080Z,17.62
2022-09-23T14:46:59.839Z,17.73
2022-09-23T14:49:27.958Z,17.75
2022-09-23T14:52:05.709Z,17.63
2022-09-23T14:54:41.361Z,17.60
2022-09-23T14:57:24.093Z,17.38
2022-09-23T14:59:59.705Z,17.52
2022-09-23T15:02:40.208Z,17.51
2022-09-23T15:05:10.350Z,17.45
2022-09-23T15:07:38.880Z,17.39
2022-09-23T15:10:37.515Z,17.45
2022-09-23T15:13:15.427Z,17.20
2022-09-23T15:15:44.258Z,17.22
2022-09-23T15:18:34.707Z,17.33
2022-09-23T15:21:13.364Z,17.09
2022-09-23T15:23:50.066Z,16.95
2022-09-23T15:26:40.623Z,17.08
2022-09-23T15:29:10.092Z,17.09
2022-09-23T15:31:37.712Z,16.96
2022-09-23T15:34:05.656Z,16.70
2022-09-23T15:36:33.319Z,16.73
2022-09-23T15:39:08.612Z,16.71
2022-09-23T15:41:36.123Z,16.66
2022-09-23T15:44:14.062Z,16.50
2022-09-23T15:46:51.854Z,16.29
2022-09-23T15:49:38.958Z,16.04
2022-09-23T15:52:09.711Z,15.89
2022-09-23T15:54:37.824Z,15.74
2022-09-23T15:57:05.427Z,15.66
2022-09-23T15:59:33.035Z,15.46
2022-09-23T16:02:07.891Z,15.33
2022-09-23T16:04:36.036Z,15.26
2022-09-23T16:07:04.969Z,15.00
2022-09-23T16:09:32.427Z,14.90
2022-09-23T16:12:02.123Z,14.80
2022-09-23T16:14:29.537Z,14.65
2022-09-23T16:16:57.591Z,14.48
2022-09-23T16:19:25.708Z,14.36
2022-09-23T16:21:53.232Z,14.23
2022-09-23T16:24:27.348Z,14.06
2022-09-23T16:26:59.998Z,13.79
2022-09-23T16:29:27.662Z,13.53
2022-09-23T16:31:55.720Z,13.34
2022-09-23T16:34:23.281Z,13.24
2022-09-23T16:36:50.739Z,13.13
2022-09-23T16:39:20.554Z,13.01
2022-09-23T16:41:48.036Z,12.94
2022-09-23T16:44:16.347Z,12.81
2022-09-23T16:46:43.646Z,12.63
2022-09-23T16:49:14.198Z,12.60
2022-09-23T16:51:42.025Z,12.51
2022-09-23T16:54:12.258Z,12.45
2022-09-23T16:56:46.374Z,12.41
2022-09-23T16:59:16.067Z,12.39
2022-09-23T17:02:02.811Z,12.45
2022-09-23T17:04:30.414Z,12.41
2022-09-23T17:06:58.075Z,12.32
2022-09-23T17:09:28.516Z,12.29
2022-09-23T17:12:27.789Z,12.30
2022-09-23T17:14:55.561Z,12.10
2022-09-23T17:17:23.075Z,12.01
2022-09-23T17:19:50.502Z,11.98
2022-09-23T17:22:17.988Z,12.02
2022-09-23T17:24:45.562Z,12.06
2022-09-23T17:27:13.401Z,12.05
2022-09-23T17:29:40.863Z,12.06
2022-09-23T17:32:09.480Z,12.03
2022-09-23T17:34:36.933Z,11.98
2022-09-23T17:37:04.476Z,11.96
2022-09-23T17:39:31.937Z,11.97
2022-09-23T17:41:59.457Z,12.01
2022-09-23T17:44:26.969Z,12.00
2022-09-23T17:46:54.448Z,12.01
2022-09-23T17:49:24.187Z,11.96
2022-09-23T17:51:51.699Z,11.90
2022-09-23T17:54:19.236Z,11.88
2022-09-23T17:56:46.787Z,11.84
2022-09-23T17:59:14.291Z,11.74
2022-09-23T18:01:42.088Z,11.67
2022-09-23T18:04:09.679Z,11.66
2022-09-23T18:06:38.079Z,11.63
2022-09-23T18:09:08.494Z,11.59
2022-09-23T18:11:43.060Z,11.52
2022-09-23T18:14:22.787Z,11.49
2022-09-23T18:16:53.676Z,11.43
2022-09-23T18:19:24.376Z,11.39
2022-09-23T18:21:57.217Z,11.31
2022-09-23T18:24:32.185Z,11.27
2022-09-23T18:27:01.650Z,11.25
2022-09-23T18:29:29.424Z,11.18
2022-09-23T18:31:57.029Z,11.13
2022-09-23T18:34:25.306Z,11.06
2022-09-23T18:36:55.958Z,11.01
2022-09-23T18:39:23.502Z,11.01
2022-09-23T18:41:51.070Z,10.92
2022-09-23T18:44:19.912Z,10.87
2022-09-23T18:46:47.381Z,10.78
2022-09-23T18:49:33.565Z,10.72
2022-09-23T18:52:01.375Z,10.68
2022-09-23T18:54:29.371Z,10.62
2022-09-23T18:56:59.090Z,10.57
2022-09-23T18:59:33.458Z,10.52
2022-09-23T19:02:01.192Z,10.54
2022-09-23T19:04:29.083Z,10.51
2022-09-23T19:06:57.897Z,10.47
2022-09-23T19:09:25.528Z,10.48
2022-09-23T19:11:53.795Z,10.44
2022-09-23T19:14:21.483Z,10.39
2022-09-23T19:16:49.600Z,10.30
2022-09-23T19:19:17.481Z,10.25
2022-09-23T19:21:45.190Z,10.22
2022-09-23T19:24:15.959Z,10.19
2022-09-23T19:26:44.498Z,10.16
2022-09-23T19:29:19.554Z,10.10
2022-09-23T19:31:48.730Z,10.05
2022-09-23T19:34:19.808Z,10.04
2022-09-23T19:36:47.821Z,10.01
2022-09-23T19:39:17.268Z,9.97
2022-09-23T19:41:46.090Z,9.91
2022-09-23T19:44:14.587Z,9.84
2022-09-23T19:46:45.205Z,9.79
2022-09-23T19:49:13.650Z,9.75
2022-09-23T19:51:41.343Z,9.71
2022-09-23T19:54:09.164Z,9.65
2022-09-23T19:56:37.624Z,9.65
2022-09-23T19:59:09.241Z,9.60
2022-09-23T20:01:37.343Z,9.61
2022-09-23T20:04:05.709Z,9.56
2022-09-23T20:06:38.531Z,9.50
2022-09-23T20:09:06.224Z,9.50
2022-09-23T20:11:34.574Z,9.48
2022-09-23T20:14:04.821Z,9.49
2022-09-23T20:16:35.917Z,9.45
2022-09-23T20:19:22.768Z,9.44
2022-09-23T20:22:10.211Z,9.43
2022-09-23T20:24:37.714Z,9.42
2022-09-23T20:27:11.115Z,9.43
2022-09-23T20:29:38.654Z,9.42
2022-09-23T20:32:06.140Z,9.41
2022-09-23T20:34:33.660Z,9.40
2022-09-23T20:37:01.256Z,9.34
2022-09-23T20:39:28.755Z,9.36
2022-09-23T20:41:56.283Z,9.29
2022-09-23T20:44:23.798Z,9.31
2022-09-23T20:46:51.846Z,9.33
2022-09-23T20:49:20.781Z,9.23
2022-09-23T20:51:49.132Z,9.20
2022-09-23T20:54:20.380Z,9.16
2022-09-23T20:56:48.091Z,9.13
2022-09-23T20:59:17.701Z,9.13
2022-09-23T21:01:47.571Z,9.12
2022-09-23T21:04:15.714Z,9.15
2022-09-23T21:06:43.267Z,9.14
2022-09-23T21:09:10.699Z,9.10
2022-09-23T21:11:38.180Z,9.06
2022-09-23T21:14:06.025Z,9.08
2022-09-23T21:16:33.865Z,9.01
2022-09-23T21:19:03.186Z,8.96
2022-09-23T21:21:30.685Z,8.94
2022-09-23T21:24:24.475Z,8.93
2022-09-23T21:26:48.962Z,8.91
2022-09-23T21:29:17.029Z,8.91
2022-09-23T21:31:44.983Z,8.90
2022-09-23T21:34:14.475Z,8.92
2022-09-23T21:36:43.346Z,8.87
2022-09-23T21:39:12.137Z,8.83
2022-09-23T21:41:40.104Z,8.82
2022-09-23T21:44:08.636Z,8.83
2022-09-23T21:46:36.854Z,8.84
2022-09-23T21:49:04.981Z,8.83
2022-09-23T21:51:41.130Z,8.81
2022-09-23T21:54:16.949Z,8.81
2022-09-23T21:56:44.914Z,8.80
2022-09-23T21:59:12.943Z,8.79
2022-09-23T22:01:45.006Z,8.81
2022-09-23T22:04:18.828Z,8.75
2022-09-23T22:06:48.781Z,8.76
2022-09-23T22:09:20.735Z,8.74
2022-09-23T22:12:09.692Z,8.69
2022-09-23T22:14:38.884Z,8.69
2022-09-23T22:17:10.347Z,8.74
2022-09-23T22:19:42.999Z,8.74
2022-09-23T22:22:18.123Z,8.75
2022-09-23T22:24:47.228Z,8.72
2022-09-23T22:27:19.757Z,8.73
2022-09-23T22:30:06.315Z,8.73
2022-09-23T22:32:52.918Z,8.69
2022-09-23T22:35:22.503Z,8.68
2022-09-23T22:37:50.483Z,8.62
2022-09-23T22:40:18.146Z,8.65
2022-09-23T22:42:45.822Z,8.63
2022-09-23T22:45:13.724Z,8.62
2022-09-23T22:47:44.968Z,8.64
2022-09-23T22:50:14.677Z,8.61
2022-09-23T22:52:42.728Z,8.55
2022-09-23T22:55:11.294Z,8.54
2022-09-23T22:57:38.826Z,8.49
2022-09-23T23:00:07.797Z,8.49
2022-09-23T23:02:35.278Z,8.44
2022-09-23T23:05:02.989Z,8.46
2022-09-23T23:07:30.413Z,8.46
2022-09-23T23:09:58.152Z,8.46
2022-09-23T23:12:25.684Z,8.47
2022-09-23T23:14:53.322Z,8.45
2022-09-23T23:17:21.785Z,8.46
2022-09-23T23:19:50.568Z,8.48
2022-09-23T23:22:18.256Z,8.46
2022-09-23T23:24:45.795Z,8.46
2022-09-23T23:27:13.276Z,8.45
2022-09-23T23:29:40.687Z,8.46
2022-09-23T23:32:09.734Z,8.44
2022-09-23T23:34:37.265Z,8.37
2022-09-23T23:37:04.760Z,8.30
2022-09-23T23:39:33.928Z,8.25
2022-09-23T23:42:01.395Z,8.25
2022-09-23T23:44:31.150Z,8.23
2022-09-23T23:46:58.643Z,8.16
2022-09-23T23:49:26.154Z,8.13
2022-09-23T23:51:53.701Z,8.17
2022-09-23T23:54:21.228Z,8.16
2022-09-23T23:56:48.935Z,8.15
2022-09-23T23:59:16.346Z,8.15
